createdAt,value
2023-05-12T00:01:05.086Z,14.51
2023-05-12T00:04:56.705Z,14.59
2023-05-12T00:07:59.769Z,14.24
2023-05-12T00:10:52.024Z,13.89
2023-05-12T00:13:56.453Z,13.80
2023-05-12T00:20:31.216Z,13.25
2023-05-12T00:26:50.077Z,13.07
2023-05-12T00:33:12.151Z,12.69
2023-05-12T00:36:19.706Z,12.95
2023-05-12T00:39:31.484Z,12.63
2023-05-12T00:42:50.343Z,12.77
2023-05-12T00:57:22.037Z,12.69
2023-05-12T01:05:03.050Z,13.11
2023-05-12T01:08:11.841Z,12.82
2023-05-12T01:19:10.873Z,12.66
2023-05-12T01:26:33.823Z,12.70
2023-05-12T01:30:19.377Z,12.19
2023-05-12T01:37:37.462Z,12.25
2023-05-12T01:40:11.553Z,12.09
2023-05-12T01:43:01.696Z,12.30
2023-05-12T01:45:53.103Z,12.17
2023-05-12T01:48:40.155Z,12.36
2023-05-12T01:51:43.189Z,12.43
2023-05-12T01:54:25.233Z,12.31
2023-05-12T01:57:24.055Z,12.39
2023-05-12T02:03:34.009Z,12.41
2023-05-12T02:06:30.402Z,12.15
2023-05-12T02:09:43.699Z,12.21
2023-05-12T02:12:47.736Z,12.71
2023-05-12T02:15:51.346Z,12.55
2023-05-12T02:18:57.239Z,12.33
2023-05-12T02:25:04.677Z,12.40
2023-05-12T02:28:28.828Z,12.09
2023-05-12T02:31:19.380Z,12.24
2023-05-12T02:34:00.208Z,12.34
2023-05-12T02:36:55.495Z,11.73
2023-05-12T02:39:50.103Z,11.60
2023-05-12T02:45:52.899Z,11.96
2023-05-12T02:49:21.290Z,11.82
2023-05-12T02:52:29.006Z,12.12
2023-05-12T02:55:11.396Z,12.16
2023-05-12T03:00:54.113Z,11.79
2023-05-12T03:04:13.156Z,11.79
2023-05-12T03:10:12.956Z,12.10
2023-05-12T03:13:09.483Z,12.02
2023-05-12T03:16:19.900Z,12.07
2023-05-12T03:19:08.296Z,11.76
2023-05-12T03:22:15.118Z,12.06
2023-05-12T03:24:56.094Z,12.08
2023-05-12T03:27:48.358Z,12.40
2023-05-12T03:30:49.006Z,12.04
2023-05-12T03:36:38.524Z,11.91
2023-05-12T03:39:18.293Z,12.15
2023-05-12T03:42:09.231Z,12.08
2023-05-12T03:45:41.082Z,12.02
2023-05-12T03:48:25.135Z,12.22
2023-05-12T03:51:15.429Z,12.43
2023-05-12T03:54:26.102Z,12.14
2023-05-12T03:57:52.272Z,12.31
2023-05-12T04:04:00.472Z,12.15
2023-05-12T04:07:49.747Z,11.84
2023-05-12T04:14:02.432Z,12.05
2023-05-12T04:17:00.184Z,12.02
2023-05-12T04:20:01.188Z,12.16
2023-05-12T04:23:03.021Z,11.87
2023-05-12T04:25:54.726Z,12.02
2023-05-12T04:28:37.075Z,11.83
2023-05-12T04:31:32.728Z,12.06
2023-05-12T04:34:28.898Z,11.87
2023-05-12T04:37:47.433Z,12.05
2023-05-12T04:41:13.159Z,11.95
2023-05-12T04:47:10.228Z,12.22
2023-05-12T04:49:55.380Z,12.00
2023-05-12T04:52:35.432Z,12.07
2023-05-12T04:55:07.868Z,11.80
2023-05-12T05:02:06.520Z,11.60
2023-05-12T05:04:38.227Z,11.69
2023-05-12T05:07:12.046Z,11.83
2023-05-12T05:09:46.537Z,11.90
2023-05-12T05:12:21.821Z,12.31
2023-05-12T05:15:00.129Z,12.40
2023-05-12T05:17:35.549Z,12.50
2023-05-12T05:24:16.748Z,11.98
2023-05-12T05:27:12.747Z,12.35
2023-05-12T05:30:20.640Z,12.06
2023-05-12T05:32:52.461Z,12.21
2023-05-12T05:35:32.325Z,12.28
2023-05-12T05:38:05.936Z,12.17
2023-05-12T05:40:55.721Z,11.62
2023-05-12T05:43:59.973Z,11.82
2023-05-12T05:47:13.211Z,12.27
2023-05-12T05:53:16.076Z,12.09
2023-05-12T05:55:57.921Z,12.22
2023-05-12T05:59:14.968Z,12.18
2023-05-12T06:02:33.252Z,12.00
2023-05-12T06:06:02.574Z,12.09
2023-05-12T06:08:50.169Z,12.11
2023-05-12T06:11:49.151Z,12.32
2023-05-12T06:14:56.429Z,12.32
2023-05-12T06:17:48.908Z,12.27
2023-05-12T06:20:34.391Z,12.58
2023-05-12T06:23:33.410Z,12.40
2023-05-12T06:26:16.087Z,11.98
2023-05-12T06:29:29.293Z,11.98
2023-05-12T06:32:13.581Z,12.47
2023-05-12T06:35:28.441Z,12.11
2023-05-12T06:39:00.433Z,12.08
2023-05-12T06:41:53.248Z,12.44
2023-05-12T06:45:05.416Z,12.39
2023-05-12T06:48:31.714Z,12.08
2023-05-12T06:56:02.706Z,12.54
2023-05-12T06:59:33.816Z,12.72
2023-05-12T07:06:20.783Z,12.39
2023-05-12T07:13:20.773Z,12.58
2023-05-12T07:16:15.977Z,12.56
2023-05-12T07:19:20.575Z,12.81
2023-05-12T07:21:52.551Z,13.00
2023-05-12T07:24:39.060Z,13.21
2023-05-12T07:27:18.062Z,13.30
2023-05-12T07:29:55.603Z,13.15
2023-05-12T07:32:43.215Z,13.05
2023-05-12T07:35:26.697Z,13.36
2023-05-12T07:38:08.073Z,13.29
2023-05-12T07:41:19.003Z,12.89
2023-05-12T07:44:22.762Z,13.23
2023-05-12T07:46:56.165Z,12.92
2023-05-12T07:49:32.344Z,12.90
2023-05-12T07:52:05.321Z,13.08
2023-05-12T07:54:41.766Z,13.29
2023-05-12T07:57:16.314Z,13.05
2023-05-12T08:00:05.267Z,13.20
2023-05-12T08:02:44.199Z,13.16
2023-05-12T08:05:18.202Z,13.29
2023-05-12T08:07:54.302Z,13.28
2023-05-12T08:10:42.427Z,13.28
2023-05-12T08:13:20.172Z,13.24
2023-05-12T08:15:53.462Z,13.04
2023-05-12T08:18:23.540Z,13.31
2023-05-12T08:20:55.607Z,13.22
2023-05-12T08:23:30.699Z,13.65
2023-05-12T08:26:06.789Z,13.62
2023-05-12T08:28:57.751Z,13.68
2023-05-12T08:31:32.660Z,13.83
2023-05-12T08:34:10.235Z,14.05
2023-05-12T08:36:44.129Z,13.41
2023-05-12T08:42:48.284Z,13.52
2023-05-12T08:45:30.823Z,13.59
2023-05-12T08:48:07.451Z,14.05
2023-05-12T08:50:52.452Z,13.84
2023-05-12T08:53:31.775Z,14.03
2023-05-12T08:58:45.117Z,13.92
2023-05-12T09:01:20.551Z,14.21
2023-05-12T09:03:53.447Z,13.71
2023-05-12T09:06:35.572Z,13.31
2023-05-12T09:09:08.075Z,13.12
2023-05-12T09:11:42.314Z,13.06
2023-05-12T09:14:21.368Z,13.63
2023-05-12T09:17:14.676Z,13.37
2023-05-12T09:20:01.859Z,13.35
2023-05-12T09:22:46.469Z,13.58
2023-05-12T09:25:23.291Z,13.69
2023-05-12T09:28:00.034Z,13.74
2023-05-12T09:30:41.279Z,13.88
2023-05-12T09:33:16.393Z,13.96
2023-05-12T09:35:58.842Z,14.19
2023-05-12T09:38:38.156Z,13.73
2023-05-12T09:41:28.585Z,13.48
2023-05-12T09:44:12.458Z,13.30
2023-05-12T09:46:50.062Z,13.20
2023-05-12T09:49:39.535Z,12.97
2023-05-12T09:52:16.723Z,13.25
2023-05-12T09:55:05.217Z,13.30
2023-05-12T10:00:51.922Z,12.89
2023-05-12T10:03:30.578Z,12.65
2023-05-12T10:06:26.562Z,12.78
2023-05-12T10:09:28.534Z,12.66
2023-05-12T10:12:13.687Z,12.26
2023-05-12T10:14:56.382Z,12.44
2023-05-12T10:17:47.876Z,12.80
2023-05-12T10:20:25.461Z,12.70
2023-05-12T10:23:17.193Z,12.66
2023-05-12T10:26:22.845Z,12.34
2023-05-12T10:29:06.305Z,12.07
2023-05-12T10:31:47.786Z,12.20
2023-05-12T10:34:25.022Z,12.34
2023-05-12T10:36:58.472Z,12.69
2023-05-12T10:39:40.423Z,12.62
2023-05-12T10:42:28.932Z,12.87
2023-05-12T10:45:07.843Z,12.37
2023-05-12T10:47:46.683Z,12.43
2023-05-12T10:50:32.295Z,12.64
2023-05-12T10:53:14.829Z,12.62
2023-05-12T10:55:52.494Z,12.86
2023-05-12T10:58:38.155Z,12.30
2023-05-12T11:01:13.167Z,12.35
2023-05-12T11:04:17.119Z,12.52
2023-05-12T11:07:07.893Z,12.58
2023-05-12T11:09:57.393Z,12.71
2023-05-12T11:12:36.296Z,12.65
2023-05-12T11:15:13.561Z,12.72
2023-05-12T11:17:51.773Z,12.80
2023-05-12T11:20:31.011Z,12.69
2023-05-12T11:22:59.947Z,12.67
2023-05-12T11:25:42.783Z,12.71
2023-05-12T11:28:42.948Z,13.12
2023-05-12T11:31:22.505Z,12.99
2023-05-12T11:34:18.787Z,13.28
2023-05-12T11:37:13.944Z,13.23
2023-05-12T11:39:53.217Z,12.94
2023-05-12T11:42:34.506Z,12.90
2023-05-12T11:45:06.568Z,12.90
2023-05-12T11:47:49.723Z,12.45
2023-05-12T11:50:50.022Z,13.14
2023-05-12T11:53:29.692Z,12.76
2023-05-12T11:56:02.477Z,12.81
2023-05-12T11:58:43.702Z,12.82
2023-05-12T12:01:17.212Z,12.20
2023-05-12T12:03:49.297Z,12.38
2023-05-12T12:06:23.612Z,12.37
2023-05-12T12:09:04.214Z,12.41
2023-05-12T12:15:15.881Z,12.61
2023-05-12T12:18:00.078Z,12.61
2023-05-12T12:20:46.085Z,12.40
2023-05-12T12:23:21.651Z,12.35
2023-05-12T12:25:59.241Z,12.27
2023-05-12T12:28:37.471Z,12.55
2023-05-12T12:31:14.008Z,12.17
2023-05-12T12:33:51.069Z,12.08
2023-05-12T12:36:32.469Z,12.28
2023-05-12T12:39:14.881Z,12.33
2023-05-12T12:42:18.427Z,12.24
2023-05-12T12:45:03.296Z,12.17
2023-05-12T12:47:42.443Z,12.28
2023-05-12T12:50:15.280Z,12.06
2023-05-12T12:52:55.688Z,11.99
2023-05-12T12:55:47.635Z,12.31
2023-05-12T12:59:20.603Z,12.34
2023-05-12T13:08:15.101Z,12.01
2023-05-12T13:11:00.098Z,12.32
2023-05-12T13:20:47.359Z,12.44
2023-05-12T13:23:57.205Z,12.43
2023-05-12T13:27:10.536Z,12.20
2023-05-12T13:29:59.846Z,12.32
2023-05-12T13:33:15.562Z,12.47
2023-05-12T13:35:59.254Z,12.57
2023-05-12T13:38:51.790Z,12.52
2023-05-12T13:41:32.543Z,12.41
2023-05-12T13:44:16.762Z,12.24
2023-05-12T13:46:48.770Z,12.53
2023-05-12T13:49:20.834Z,12.57
2023-05-12T13:52:07.320Z,12.49
2023-05-12T13:54:45.617Z,12.73
2023-05-12T13:57:31.319Z,13.04
2023-05-12T14:00:06.414Z,12.92
2023-05-12T14:02:54.445Z,13.30
2023-05-12T14:05:36.076Z,13.09
2023-05-12T14:08:15.736Z,13.21
2023-05-12T14:11:15.099Z,13.57
2023-05-12T14:19:08.085Z,13.13
2023-05-12T14:30:54.880Z,13.21
2023-05-12T14:34:05.315Z,13.33
2023-05-12T14:37:25.463Z,13.25
2023-05-12T14:41:01.761Z,13.09
2023-05-12T15:07:36.415Z,13.47
2023-05-12T15:10:04.765Z,13.38
2023-05-12T15:12:32.850Z,13.06
2023-05-12T15:15:05.239Z,13.00
2023-05-12T15:17:34.615Z,12.45
2023-05-12T15:20:02.199Z,12.68
2023-05-12T15:22:31.468Z,13.21
2023-05-12T15:24:59.696Z,13.12
2023-05-12T15:27:27.571Z,13.22
2023-05-12T15:29:55.242Z,12.90
2023-05-12T15:32:23.129Z,12.58
2023-05-12T15:34:50.665Z,13.21
2023-05-12T15:37:18.177Z,13.36
2023-05-12T15:39:46.162Z,13.07
2023-05-12T15:42:14.687Z,12.90
2023-05-12T15:44:47.030Z,12.89
2023-05-12T15:47:14.521Z,13.11
2023-05-12T15:49:41.987Z,13.12
2023-05-12T15:52:11.481Z,13.07
2023-05-12T15:54:39.165Z,13.36
2023-05-12T15:57:07.218Z,13.21
2023-05-12T15:59:35.704Z,13.42
2023-05-12T16:02:04.012Z,13.05
2023-05-12T16:04:31.760Z,13.05
2023-05-12T16:07:02.203Z,12.97
2023-05-12T16:09:29.713Z,13.02
2023-05-12T16:11:57.851Z,12.73
2023-05-12T16:14:25.616Z,12.73
2023-05-12T16:16:53.613Z,12.65
2023-05-12T16:19:21.732Z,12.85
2023-05-12T16:21:49.121Z,12.48
2023-05-12T16:24:16.514Z,12.41
2023-05-12T16:26:44.149Z,12.34
2023-05-12T16:29:11.511Z,12.78
2023-05-12T16:31:39.114Z,12.51
2023-05-12T16:34:07.677Z,12.13
2023-05-12T16:36:35.270Z,11.89
2023-05-12T16:39:02.984Z,12.46
2023-05-12T16:41:30.638Z,12.59
2023-05-12T16:43:58.073Z,12.65
2023-05-12T16:46:26.624Z,12.64
2023-05-12T16:48:54.498Z,12.22
2023-05-12T16:51:23.783Z,12.17
2023-05-12T16:53:51.474Z,12.06
2023-05-12T16:56:19.620Z,12.49
2023-05-12T16:58:47.275Z,12.68
2023-05-12T17:01:15.081Z,12.47
2023-05-12T17:03:43.110Z,12.42
2023-05-12T17:06:11.087Z,12.54
2023-05-12T17:08:38.587Z,12.56
2023-05-12T17:11:06.843Z,12.23
2023-05-12T17:13:38.110Z,12.05
2023-05-12T17:16:06.088Z,12.11
2023-05-12T17:19:13.656Z,12.24
2023-05-12T17:21:24.275Z,11.78
2023-05-12T17:23:51.687Z,12.32
2023-05-12T17:26:19.104Z,12.05
2023-05-12T17:28:47.071Z,12.47
2023-05-12T17:31:14.571Z,11.90
2023-05-12T17:33:41.969Z,12.06
2023-05-12T17:36:12.863Z,12.46
2023-05-12T17:38:41.528Z,12.75
2023-05-12T17:41:09.099Z,11.97
2023-05-12T17:43:36.802Z,12.19
2023-05-12T17:46:05.380Z,12.48
2023-05-12T17:48:33.465Z,12.72
2023-05-12T17:51:03.129Z,12.68
2023-05-12T17:53:31.727Z,12.55
2023-05-12T17:56:00.072Z,12.38
2023-05-12T17:58:27.920Z,12.00
2023-05-12T18:00:55.402Z,12.08
2023-05-12T18:03:23.858Z,11.97
2023-05-12T18:05:53.580Z,11.89
2023-05-12T18:08:21.740Z,11.81
2023-05-12T18:10:49.547Z,11.91
2023-05-12T18:13:17.040Z,11.97
2023-05-12T18:15:46.075Z,11.49
2023-05-12T18:18:14.636Z,11.55
2023-05-12T18:20:42.376Z,11.78
2023-05-12T18:23:09.890Z,11.75
2023-05-12T18:25:37.684Z,11.68
2023-05-12T18:28:06.558Z,11.54
2023-05-12T18:30:34.021Z,12.04
2023-05-12T18:33:02.137Z,11.84
2023-05-12T18:35:29.929Z,11.48
2023-05-12T18:37:57.523Z,11.64
2023-05-12T18:40:25.281Z,11.81
2023-05-12T18:42:53.034Z,11.71
2023-05-12T18:45:20.742Z,11.57
2023-05-12T18:47:48.718Z,11.67
2023-05-12T18:50:16.922Z,11.81
2023-05-12T18:52:44.488Z,11.98
2023-05-12T18:55:12.285Z,11.57
2023-05-12T18:57:39.721Z,11.87
2023-05-12T19:00:07.801Z,12.11
2023-05-12T19:02:36.534Z,11.84
2023-05-12T19:05:04.320Z,11.99
2023-05-12T19:07:31.987Z,11.84
2023-05-12T19:10:00.488Z,11.77
2023-05-12T19:12:27.984Z,11.81
2023-05-12T19:14:55.684Z,11.93
2023-05-12T19:17:23.497Z,11.82
2023-05-12T19:19:51.130Z,11.66
2023-05-12T19:22:18.569Z,11.86
2023-05-12T19:24:46.291Z,11.79
2023-05-12T19:27:13.744Z,12.00
2023-05-12T19:29:41.155Z,11.99
2023-05-12T19:32:09.038Z,11.44
2023-05-12T19:34:37.098Z,11.60
2023-05-12T19:37:05.905Z,11.13
2023-05-12T19:39:33.597Z,11.42
2023-05-12T19:42:01.026Z,11.64
2023-05-12T19:44:30.031Z,11.66
2023-05-12T19:47:04.413Z,11.76
2023-05-12T19:49:34.244Z,11.84
2023-05-12T19:52:06.048Z,11.81
2023-05-12T19:54:33.692Z,11.95
2023-05-12T19:57:02.069Z,12.21
2023-05-12T19:59:29.804Z,11.78
2023-05-12T20:01:57.334Z,11.64
2023-05-12T20:04:25.566Z,11.51
2023-05-12T20:06:54.508Z,11.57
2023-05-12T20:09:23.192Z,11.92
2023-05-12T20:11:51.044Z,11.86
2023-05-12T20:14:38.418Z,12.14
2023-05-12T20:17:07.604Z,12.25
2023-05-12T20:19:35.685Z,12.33
2023-05-12T20:22:03.709Z,12.05
2023-05-12T20:24:31.883Z,12.22
2023-05-12T20:26:59.741Z,11.83
2023-05-12T20:29:27.621Z,11.72
2023-05-12T20:31:55.254Z,11.74
2023-05-12T20:34:22.621Z,12.15
2023-05-12T20:36:50.646Z,12.05
2023-05-12T20:39:18.393Z,11.92
2023-05-12T20:41:46.483Z,11.89
2023-05-12T20:44:13.973Z,12.05
2023-05-12T20:46:42.029Z,12.34
2023-05-12T20:49:09.755Z,12.53
2023-05-12T20:51:37.122Z,12.02
2023-05-12T20:54:05.083Z,12.21
2023-05-12T20:56:32.488Z,11.94
2023-05-12T20:58:59.878Z,12.26
2023-05-12T21:01:28.162Z,12.24
2023-05-12T21:03:55.671Z,12.07
2023-05-12T21:06:23.370Z,12.30
2023-05-12T21:08:51.115Z,12.20
2023-05-12T21:11:19.163Z,12.48
2023-05-12T21:13:48.297Z,12.37
2023-05-12T21:16:16.715Z,12.57
2023-05-12T21:18:44.430Z,12.06
2023-05-12T21:21:11.925Z,12.25
2023-05-12T21:23:40.553Z,12.25
2023-05-12T21:26:10.511Z,12.03
2023-05-12T21:28:38.011Z,11.92
2023-05-12T21:31:05.772Z,12.04
2023-05-12T21:33:33.356Z,12.19
2023-05-12T21:36:01.385Z,11.96
2023-05-12T21:38:31.929Z,11.88
2023-05-12T21:40:59.342Z,12.12
2023-05-12T21:43:27.794Z,12.17
2023-05-12T21:45:55.718Z,12.04
2023-05-12T21:48:23.294Z,12.08
2023-05-12T21:51:00.719Z,11.69
2023-05-12T21:53:29.343Z,11.60
2023-05-12T21:55:56.852Z,12.00
2023-05-12T21:58:24.390Z,12.02
2023-05-12T22:00:52.408Z,12.03
2023-05-12T22:03:21.868Z,12.00
2023-05-12T22:05:50.060Z,11.94
2023-05-12T22:08:17.610Z,12.10
2023-05-12T22:10:45.640Z,12.07
2023-05-12T22:13:13.012Z,12.27
2023-05-12T22:15:41.248Z,11.92
2023-05-12T22:18:09.166Z,12.33
2023-05-12T22:20:36.776Z,11.99
2023-05-12T22:23:04.632Z,11.92
2023-05-12T22:25:32.357Z,12.12
2023-05-12T22:27:59.698Z,11.88
2023-05-12T22:30:27.082Z,12.03
2023-05-12T22:32:55.315Z,12.27
2023-05-12T22:35:23.053Z,12.15
2023-05-12T22:37:50.932Z,12.20
2023-05-12T22:40:21.363Z,12.14
2023-05-12T22:42:48.904Z,11.73
2023-05-12T22:45:16.455Z,11.47
2023-05-12T22:47:44.235Z,11.53
2023-05-12T22:50:11.701Z,11.80
2023-05-12T22:52:39.182Z,11.99
2023-05-12T22:55:07.139Z,11.82
2023-05-12T22:57:34.559Z,11.74
2023-05-12T23:00:01.975Z,11.98
2023-05-12T23:02:30.239Z,11.88
2023-05-12T23:04:57.665Z,12.03
2023-05-12T23:07:25.080Z,12.43
2023-05-12T23:09:52.803Z,12.27
2023-05-12T23:12:20.199Z,12.26
2023-05-12T23:14:47.664Z,12.18
2023-05-12T23:17:15.331Z,12.09
2023-05-12T23:19:42.692Z,12.32
2023-05-12T23:22:10.080Z,12.35
2023-05-12T23:24:38.233Z,12.15
2023-05-12T23:27:05.785Z,12.34
2023-05-12T23:29:34.486Z,11.74
2023-05-12T23:32:02.760Z,12.05
2023-05-12T23:34:30.157Z,12.09
2023-05-12T23:36:57.856Z,12.22
2023-05-12T23:39:25.540Z,12.01
2023-05-12T23:41:52.904Z,12.10
2023-05-12T23:44:20.315Z,11.81
2023-05-12T23:46:48.340Z,11.80
2023-05-12T23:49:15.981Z,12.09
2023-05-12T23:51:43.558Z,12.12
2023-05-12T23:54:11.289Z,11.75
2023-05-12T23:56:38.731Z,11.77
2023-05-12T23:59:06.276Z,11.78
